Athboy, South Dakota
Current Conditions -  °F | °C
As of 1:53 AM on Sunday 26 Oct 2014 (Local Time) from KHEI Reporting Station
Clear Clear  
Wind Chill:   Ceiling: Unl
Heat Index:   Visibility: 10mi
Dew Point: -1°   Wind: 16mph
Humidity: 50%   Direction: 130°SE
Pressure: 29.7"   Gusts: NA
Location:  45.2919°N, 102.298°W
Report Text: KHEI 260753Z AUTO 13014KT 10SM CLR 09/M01 A2970 RMK AO2 SLP053 T00941006
Loading
Personal Weather Stations






























Interactive Weather Map
Tropical Storm Tracking
New forecast layout! Learn more

10-Day Weather Forecast

Advertisements
Track Severe Weather on mobile